Vera Cruz, Brazil
Current Conditions -  °F | °C
As of 10:00 PM on Thursday 18 Dec 2014 (Local Time) from SBML Reporting Station
Scattered Clouds Scattered Clouds  
Wind Chill: 84°   Ceiling: Unl
Heat Index: 84°   Visibility: 6mi
Dew Point: 61°   Wind: 7mph
Humidity: 45%   Direction: 240°WSW
Pressure: 29.85"   Gusts: NA
Location:  22°S, 50°W
Report Text: SBML 190000Z 24006KT 9999 SCT030 SCT080 29/16 Q1011
Loading
Personal Weather Stations






























Interactive Weather Map New forecast layout! Learn more

10-Day Weather Forecast

Advertisements
Track Severe Weather on mobile